Time;durP1;ratioP1;P1;durP2;ratioP2;P2;SDS_P1;SDS_P2;PMS_P1;PMS_P2;Temp;Humidity;BMP_temperature;BMP_pressure;BME280_temperature;BME280_humidity;BME280_pressure;Samples;Min_cycle;Max_cycle;Signal;HPM_P1;HPM_P2
2022/05/12 00:01:19;;;;;;;9.45;3.50;;;18.90;92.40;;;;;;5033030;28;20034;-76
2022/05/12 00:03:45;;;;;;;9.68;2.90;;;18.80;92.40;;;;;;5033960;28;20069;-77
2022/05/12 00:06:11;;;;;;;16.20;3.80;;;18.70;92.70;;;;;;5033917;28;20106;-78
2022/05/12 00:08:36;;;;;;;14.55;3.63;;;18.70;93.10;;;;;;5033882;28;20124;-78
2022/05/12 00:11:04;;;;;;;11.00;2.92;;;18.50;93.30;;;;;;5033948;28;20025;-76
2022/05/12 00:13:30;;;;;;;10.48;3.90;;;18.30;93.80;;;;;;5034434;28;20033;-78
2022/05/12 00:15:57;;;;;;;14.38;3.22;;;18.40;93.80;;;;;;5033854;28;20021;-77
2022/05/12 00:18:22;;;;;;;21.55;3.95;;;18.30;94.00;;;;;;5032639;28;20037;-78
2022/05/12 00:20:48;;;;;;;14.68;3.88;;;18.30;94.70;;;;;;5033534;28;20043;-77
2022/05/12 00:23:16;;;;;;;16.20;3.80;;;18.30;94.70;;;;;;5033451;28;20026;-77
2022/05/12 00:25:44;;;;;;;16.35;3.67;;;18.30;94.70;;;;;;5033091;28;20029;-76
2022/05/12 00:28:11;;;;;;;13.23;3.47;;;18.30;94.90;;;;;;5033758;28;20105;-75
2022/05/12 00:30:38;;;;;;;12.23;3.10;;;18.30;94.60;;;;;;5033432;28;20029;-76
2022/05/12 00:33:04;;;;;;;10.93;3.53;;;18.30;94.50;;;;;;5033519;28;20033;-78
2022/05/12 00:35:30;;;;;;;13.18;3.38;;;18.20;94.60;;;;;;5032317;28;20064;-76
2022/05/12 00:37:55;;;;;;;12.02;3.17;;;18.20;94.20;;;;;;5033862;28;20053;-78
2022/05/12 00:40:21;;;;;;;12.27;3.13;;;18.20;94.40;;;;;;5033438;28;20418;-77
2022/05/12 00:43:02;;;;;;;14.98;2.90;;;18.20;94.70;;;;;;5033380;28;20033;-77
2022/05/12 00:45:30;;;;;;;16.30;3.50;;;18.20;95.10;;;;;;5032215;28;20040;-77
2022/05/12 00:47:57;;;;;;;10.95;2.80;;;18.10;95.40;;;;;;5032284;28;20037;-76
2022/05/12 00:50:29;;;;;;;18.42;3.80;;;18.10;95.10;;;;;;5033197;28;20079;-78
2022/05/12 00:52:58;;;;;;;11.73;3.78;;;18.00;94.80;;;;;;5032371;28;20112;-77
2022/05/12 01:09:47;;;;;;;14.20;2.95;;;17.80;95.30;;;;;;5028244;28;20053;-77
2022/05/12 01:37:13;;;;;;;7.63;2.78;;;17.50;95.90;;;;;;4994297;28;20064;-76
2022/05/12 02:13:50;;;;;;;4.43;1.88;;;16.50;95.50;;;;;;5027176;28;20500;-76
2022/05/12 02:36:27;;;;;;;4.03;1.10;;;15.60;92.20;;;;;;5031247;28;20125;-77
2022/05/12 02:38:52;;;;;;;3.13;0.80;;;15.50;92.10;;;;;;5031289;28;20120;-76
2022/05/12 02:41:18;;;;;;;6.38;0.82;;;15.40;92.20;;;;;;5030047;28;20108;-76
2022/05/12 02:43:44;;;;;;;6.28;0.95;;;15.30;92.10;;;;;;5031456;28;20506;-74
2022/05/12 02:46:12;;;;;;;4.80;1.17;;;15.30;91.90;;;;;;5030382;28;20026;-75
2022/05/12 02:48:43;;;;;;;4.55;1.05;;;15.30;91.90;;;;;;5030990;28;20057;-76
2022/05/12 02:51:11;;;;;;;4.60;1.08;;;15.10;92.10;;;;;;5030914;28;20044;-76
2022/05/12 02:53:38;;;;;;;3.60;1.13;;;15.20;92.30;;;;;;5030840;28;20026;-76
2022/05/12 02:56:07;;;;;;;6.93;1.35;;;15.10;92.20;;;;;;5030739;28;20029;-75
2022/05/12 02:58:34;;;;;;;5.88;1.13;;;15.00;92.40;;;;;;5031202;28;20087;-75
2022/05/12 03:01:00;;;;;;;5.32;0.93;;;15.00;92.30;;;;;;5030831;28;20033;-75
2022/05/12 03:03:26;;;;;;;1.42;0.73;;;15.10;92.10;;;;;;5030904;28;20041;-75
2022/05/12 03:05:53;;;;;;;3.13;0.95;;;14.90;92.00;;;;;;5029646;28;20048;-75
2022/05/12 03:08:19;;;;;;;3.28;0.90;;;15.00;92.00;;;;;;5030945;28;20073;-75
2022/05/12 03:10:45;;;;;;;3.17;1.08;;;15.00;92.10;;;;;;5031223;28;20026;-75
2022/05/12 03:13:11;;;;;;;3.60;0.82;;;15.10;91.70;;;;;;5029529;28;20040;-75
2022/05/12 03:15:37;;;;;;;4.55;0.65;;;15.10;92.00;;;;;;5046128;28;20041;-75
2022/05/12 03:18:02;;;;;;;3.05;0.90;;;15.10;92.00;;;;;;5050621;28;20033;-75
2022/05/12 03:20:31;;;;;;;4.40;0.88;;;15.00;91.90;;;;;;5032732;28;20087;-75
2022/05/12 03:22:59;;;;;;;3.35;0.68;;;14.80;92.10;;;;;;5050900;28;20029;-75
2022/05/12 03:25:24;;;;;;;6.28;1.13;;;14.80;92.30;;;;;;5032811;28;20040;-75
2022/05/12 03:27:50;;;;;;;2.55;1.10;;;14.80;92.10;;;;;;5050301;28;20022;-74
2022/05/12 03:30:19;;;;;;;8.43;1.20;;;14.80;92.20;;;;;;5050523;28;20112;-75
2022/05/12 03:32:45;;;;;;;3.67;1.00;;;14.70;92.20;;;;;;5032843;28;20174;-74
2022/05/12 03:35:11;;;;;;;3.30;0.82;;;14.70;92.30;;;;;;5050463;28;20108;-74
2022/05/12 03:37:37;;;;;;;1.92;0.80;;;14.80;92.30;;;;;;5050894;28;20363;-75
2022/05/12 03:40:05;;;;;;;5.00;1.00;;;14.60;92.20;;;;;;5050413;28;20378;-75
2022/05/12 03:42:30;;;;;;;3.23;0.87;;;14.70;92.30;;;;;;5050308;28;20044;-75
2022/05/12 03:44:59;;;;;;;5.32;0.80;;;14.60;92.50;;;;;;5050234;28;20029;-76
2022/05/12 03:47:30;;;;;;;2.20;0.77;;;14.40;92.50;;;;;;5050660;28;20037;-76
2022/05/12 03:49:59;;;;;;;2.80;0.90;;;14.40;92.60;;;;;;5050649;28;20087;-76
2022/05/12 03:52:25;;;;;;;7.00;1.00;;;14.40;92.70;;;;;;5050269;28;20037;-75
2022/05/12 03:54:51;;;;;;;1.17;0.40;;;14.40;92.70;;;;;;5050274;28;20063;-74
2022/05/12 03:57:18;;;;;;;2.42;1.00;;;14.40;92.70;;;;;;5051718;28;20029;-75
2022/05/12 03:59:48;;;;;;;4.07;1.02;;;14.50;92.60;;;;;;5053870;28;20064;-76
2022/05/12 04:02:14;;;;;;;2.47;1.10;;;14.50;92.50;;;;;;5053915;28;20048;-76
2022/05/12 04:04:43;;;;;;;4.18;0.85;;;14.50;92.50;;;;;;5054343;28;20017;-76
2022/05/12 04:07:14;;;;;;;8.63;1.20;;;14.30;92.90;;;;;;5053915;28;20037;-76
2022/05/12 04:09:40;;;;;;;6.95;1.10;;;14.40;92.80;;;;;;5053805;28;20032;-77
2022/05/12 04:12:09;;;;;;;6.13;1.70;;;14.40;92.90;;;;;;5053584;28;20124;-75
2022/05/12 04:14:35;;;;;;;2.78;0.88;;;14.40;92.90;;;;;;5053396;28;20644;-76
2022/05/12 04:17:01;;;;;;;2.90;1.30;;;14.40;93.00;;;;;;5053518;28;20075;-75
2022/05/12 04:19:28;;;;;;;7.82;1.38;;;14.50;92.80;;;;;;5036434;28;20060;-75
2022/05/12 04:21:53;;;;;;;6.43;1.15;;;14.20;93.10;;;;;;5053592;28;20026;-75
2022/05/12 04:24:19;;;;;;;4.18;1.23;;;14.30;93.20;;;;;;5053570;28;20507;-75
2022/05/12 04:26:46;;;;;;;6.80;1.48;;;14.30;93.40;;;;;;5053583;28;20033;-75
2022/05/12 04:29:12;;;;;;;4.22;1.45;;;14.30;93.30;;;;;;5053315;28;20469;-75
2022/05/12 04:31:37;;;;;;;5.50;1.10;;;14.10;93.50;;;;;;5036143;28;20464;-75
2022/05/12 04:36:47;;;;;;;8.90;0.98;;;14.00;93.70;;;;;;5053328;28;20099;-75
2022/05/12 04:39:13;;;;;;;10.23;1.40;;;14.00;93.80;;;;;;5053360;28;20453;-76
2022/05/12 04:41:39;;;;;;;5.00;1.38;;;14.10;93.80;;;;;;5053267;28;20032;-75
2022/05/12 04:44:06;;;;;;;2.63;0.82;;;14.10;93.70;;;;;;5053011;28;20029;-75
2022/05/12 04:46:34;;;;;;;5.05;1.45;;;14.20;93.70;;;;;;5035856;28;20017;-74
2022/05/12 04:49:01;;;;;;;8.32;1.38;;;14.00;94.00;;;;;;5052816;28;20029;-75
2022/05/12 04:51:26;;;;;;;6.57;1.35;;;14.10;93.70;;;;;;5052862;28;20120;-75
2022/05/12 04:53:52;;;;;;;5.60;1.20;;;14.00;93.80;;;;;;5034822;28;20116;-75
2022/05/12 04:56:18;;;;;;;4.00;0.95;;;13.90;93.90;;;;;;5035412;28;20082;-76
2022/05/12 04:58:43;;;;;;;5.82;0.90;;;14.10;93.80;;;;;;5053240;28;20112;-76
2022/05/12 05:01:09;;;;;;;6.82;1.45;;;14.10;93.80;;;;;;5053052;28;20507;-75
2022/05/12 05:03:35;;;;;;;7.18;1.45;;;14.10;93.70;;;;;;5034923;28;20026;-75
2022/05/12 05:06:00;;;;;;;6.60;1.20;;;14.10;93.70;;;;;;5052941;28;20060;-74
2022/05/12 05:08:27;;;;;;;4.85;1.40;;;14.10;93.80;;;;;;5051942;28;20362;-75
2022/05/12 05:10:53;;;;;;;8.60;1.20;;;13.90;93.90;;;;;;5053066;28;20462;-77
2022/05/12 05:13:21;;;;;;;2.97;0.98;;;14.00;93.80;;;;;;5052516;28;20068;-76
2022/05/12 05:15:47;;;;;;;;;;;14.00;93.90;;;;;;5052846;28;20045;-76
2022/05/12 05:18:15;;;;;;;5.13;1.17;;;14.10;93.80;;;;;;5034895;28;19937;-76
2022/05/12 05:20:44;;;;;;;3.57;0.97;;;14.20;93.90;;;;;;5034757;28;20063;-77
2022/05/12 05:23:11;;;;;;;4.15;1.77;;;14.10;93.70;;;;;;5034663;28;20024;-76
2022/05/12 05:25:38;;;;;;;5.23;1.10;;;14.10;93.70;;;;;;5035052;28;20032;-77
2022/05/12 05:28:04;;;;;;;2.17;0.93;;;14.10;93.70;;;;;;5034670;28;20614;-76
2022/05/12 05:30:30;;;;;;;4.97;1.15;;;14.10;93.60;;;;;;5052114;28;20112;-76
2022/05/12 05:32:56;;;;;;;5.15;1.10;;;14.20;93.50;;;;;;5052051;28;20127;-75
2022/05/12 05:35:22;;;;;;;4.75;1.20;;;14.20;93.40;;;;;;5052190;28;20036;-75
2022/05/12 05:37:49;;;;;;;6.28;1.17;;;14.20;93.30;;;;;;5034972;28;20029;-76
2022/05/12 05:40:18;;;;;;;4.40;0.77;;;14.10;93.20;;;;;;5034423;28;20053;-77
2022/05/12 05:42:44;;;;;;;3.50;1.33;;;14.00;93.50;;;;;;5051887;28;20021;-79
2022/05/12 05:45:12;;;;;;;3.95;1.35;;;14.20;93.40;;;;;;5034174;28;20485;-77
2022/05/12 05:47:39;;;;;;;2.33;1.05;;;14.10;93.20;;;;;;5051774;28;20502;-76
2022/05/12 05:50:08;;;;;;;2.78;0.88;;;14.10;93.20;;;;;;5051806;28;20021;-76
2022/05/12 05:55:19;;;;;;;5.72;1.40;;;14.10;93.00;;;;;;5051662;28;20060;-76
2022/05/12 05:57:44;;;;;;;5.05;1.60;;;14.30;93.40;;;;;;5051643;28;20040;-76
2022/05/12 06:00:12;;;;;;;7.53;1.35;;;14.50;92.50;;;;;;5033932;28;20029;-77
2022/05/12 06:02:38;;;;;;;5.63;1.27;;;14.80;92.50;;;;;;5051520;28;20108;-75
2022/05/12 06:05:06;;;;;;;5.03;1.20;;;15.00;92.10;;;;;;5051566;28;20433;-77
2022/05/12 06:07:35;;;;;;;3.20;1.00;;;14.90;91.80;;;;;;5052118;28;20130;-76
2022/05/12 06:10:01;;;;;;;4.00;0.90;;;14.80;92.00;;;;;;5033949;28;20031;-77
2022/05/12 06:12:29;;;;;;;4.95;1.15;;;14.90;92.00;;;;;;5051610;28;20052;-76
2022/05/12 06:14:56;;;;;;;3.13;1.00;;;14.80;91.80;;;;;;5051174;28;20037;-77
2022/05/12 06:17:21;;;;;;;5.30;0.95;;;14.90;92.00;;;;;;5051489;28;20029;-77
2022/05/12 06:19:50;;;;;;;3.72;0.95;;;15.10;91.80;;;;;;5051737;28;20072;-76
2022/05/12 06:22:19;;;;;;;3.80;1.23;;;15.00;91.70;;;;;;5033440;28;20029;-77
2022/05/12 06:24:47;;;;;;;3.28;1.10;;;15.20;91.40;;;;;;5051373;28;20036;-78
2022/05/12 06:27:14;;;;;;;4.22;1.20;;;15.40;91.70;;;;;;5051204;28;20043;-76
2022/05/12 06:29:41;;;;;;;5.82;1.40;;;16.00;91.10;;;;;;5051325;28;20115;-77
2022/05/12 06:32:07;;;;;;;5.45;1.25;;;16.20;90.50;;;;;;5051321;28;20450;-77
2022/05/12 06:34:34;;;;;;;6.07;1.33;;;16.30;90.00;;;;;;5051558;28;20013;-77
2022/05/12 06:37:00;;;;;;;5.22;1.63;;;16.50;89.10;;;;;;5033442;28;20037;-76
2022/05/12 06:39:26;;;;;;;3.22;1.10;;;16.60;89.00;;;;;;5050931;28;20048;-76
2022/05/12 06:41:52;;;;;;;2.08;1.10;;;16.90;88.20;;;;;;5051000;28;20044;-77
2022/05/12 06:44:19;;;;;;;5.40;1.45;;;16.90;87.90;;;;;;5050903;28;20025;-75
2022/05/12 06:46:45;;;;;;;5.15;1.30;;;16.80;87.40;;;;;;5051400;28;20104;-76
2022/05/12 06:49:11;;;;;;;4.95;1.13;;;17.00;87.30;;;;;;5051070;28;20083;-77
2022/05/12 06:51:37;;;;;;;6.25;1.75;;;17.10;87.50;;;;;;5050670;28;20462;-77
2022/05/12 06:54:03;;;;;;;5.45;1.40;;;17.30;86.80;;;;;;5050767;28;20108;-77
2022/05/12 06:56:31;;;;;;;5.63;1.30;;;17.10;86.20;;;;;;5032967;28;20248;-76
2022/05/12 06:58:57;;;;;;;6.85;1.33;;;17.10;86.50;;;;;;5051177;28;20091;-76
2022/05/12 07:01:24;;;;;;;7.10;1.83;;;16.50;87.10;;;;;;5032962;28;20025;-77
2022/05/12 07:03:50;;;;;;;8.55;1.92;;;16.90;87.80;;;;;;5050730;28;20029;-77
2022/05/12 07:06:16;;;;;;;4.40;1.30;;;17.20;87.20;;;;;;5033090;28;20450;-76
2022/05/12 07:08:42;;;;;;;5.18;1.42;;;16.90;86.20;;;;;;5050732;28;20029;-76
2022/05/12 07:11:10;;;;;;;4.53;1.35;;;16.40;87.70;;;;;;5032801;28;20044;-77
2022/05/12 07:13:36;;;;;;;6.50;1.00;;;16.80;87.80;;;;;;5033454;28;20356;-77
2022/05/12 07:16:06;;;;;;;4.22;1.25;;;16.80;87.30;;;;;;5050372;28;20048;-76
2022/05/12 07:18:34;;;;;;;5.20;1.13;;;16.70;87.70;;;;;;5050724;28;20025;-76
2022/05/12 07:26:41;;;;;;;7.88;1.50;;;16.70;87.40;;;;;;5050269;28;20083;-77
2022/05/12 07:29:13;;;;;;;3.83;1.42;;;16.70;87.50;;;;;;5050422;28;20021;-78
2022/05/12 07:31:39;;;;;;;6.47;1.27;;;16.70;87.70;;;;;;5033617;28;20492;-77
2022/05/12 07:34:05;;;;;;;8.50;1.58;;;16.80;87.10;;;;;;5036601;28;20120;-76
2022/05/12 07:36:34;;;;;;;5.70;1.05;;;16.50;87.90;;;;;;5054499;28;20026;-76
2022/05/12 07:39:00;;;;;;;6.80;1.92;;;16.60;87.90;;;;;;5054534;28;20048;-78
2022/05/12 07:41:27;;;;;;;7.30;1.60;;;16.80;87.10;;;;;;5036665;28;20025;-78
2022/05/12 07:43:54;;;;;;;4.40;0.88;;;17.00;86.80;;;;;;5054829;28;20021;-77
2022/05/12 07:46:27;;;;;;;7.13;1.20;;;17.40;86.20;;;;;;5054293;28;20105;-76
2022/05/12 07:48:54;;;;;;;6.55;1.48;;;17.30;84.90;;;;;;5054472;28;20035;-77
2022/05/12 07:51:21;;;;;;;6.88;1.30;;;17.10;85.30;;;;;;5054352;28;20432;-77
2022/05/12 07:53:48;;;;;;;4.53;1.30;;;17.50;85.40;;;;;;5054186;28;20022;-77
2022/05/12 07:56:15;;;;;;;5.68;1.73;;;17.70;84.50;;;;;;5053989;28;20025;-77
2022/05/12 07:58:41;;;;;;;6.27;1.17;;;18.20;84.10;;;;;;5054691;28;20362;-77
2022/05/12 08:01:07;;;;;;;6.13;1.45;;;18.30;82.10;;;;;;5053886;28;20254;-77
2022/05/12 08:03:34;;;;;;;5.10;1.40;;;18.00;82.30;;;;;;5053938;28;20126;-77
2022/05/12 08:06:00;;;;;;;6.28;1.60;;;18.40;82.50;;;;;;5054114;28;20103;-76
2022/05/12 08:08:26;;;;;;;5.95;1.48;;;18.40;81.40;;;;;;5053811;28;20029;-76
2022/05/12 08:10:52;;;;;;;6.28;1.00;;;19.00;81.20;;;;;;5054102;28;20319;-78
2022/05/12 08:13:17;;;;;;;6.63;1.05;;;19.30;78.50;;;;;;5035994;28;20040;-79
2022/05/12 08:15:45;;;;;;;4.65;1.23;;;20.40;76.80;;;;;;5053617;28;20470;-78
2022/05/12 08:18:10;;;;;;;4.90;1.40;;;20.40;72.50;;;;;;5053665;28;20068;-76
2022/05/12 08:20:38;;;;;;;7.85;1.20;;;20.10;73.40;;;;;;5035869;28;20033;-77
2022/05/12 08:23:04;;;;;;;2.97;1.40;;;20.80;72.30;;;;;;5035764;28;20044;-76
2022/05/12 08:25:30;;;;;;;2.97;0.88;;;21.70;71.50;;;;;;5036254;28;20115;-76
2022/05/12 08:27:56;;;;;;;5.28;1.48;;;22.10;69.30;;;;;;5036086;28;20530;-77
2022/05/12 08:30:21;;;;;;;3.75;0.93;;;22.80;67.30;;;;;;5035779;28;20140;-78
2022/05/12 08:32:47;;;;;;;4.57;1.00;;;22.50;65.20;;;;;;5053234;28;20498;-77
2022/05/12 08:35:13;;;;;;;2.70;0.80;;;22.00;66.30;;;;;;5053299;28;20039;-76
2022/05/12 08:37:39;;;;;;;11.18;1.60;;;22.30;65.20;;;;;;5053631;28;20052;-77
2022/05/12 08:40:07;;;;;;;6.20;2.13;;;22.00;65.50;;;;;;5053246;28;20044;-77
2022/05/12 08:42:39;;;;;;;3.47;1.23;;;21.60;66.50;;;;;;5035121;28;20021;-77
2022/05/12 08:45:07;;;;;;;8.90;1.30;;;21.80;66.10;;;;;;5051828;28;20120;-77
2022/05/12 08:47:37;;;;;;;5.78;1.00;;;22.50;63.40;;;;;;5053052;28;20478;-77
2022/05/12 08:50:06;;;;;;;4.63;1.17;;;23.10;64.90;;;;;;5035305;28;20032;-77
2022/05/12 08:52:55;;;;;;;2.83;0.90;;;23.80;60.50;;;;;;5052950;28;20044;-77
2022/05/12 08:55:29;;;;;;;4.95;1.25;;;24.10;59.50;;;;;;5052844;28;20039;-76
2022/05/12 08:58:03;;;;;;;5.75;1.10;;;23.10;60.00;;;;;;5053062;28;20049;-77
2022/05/12 09:00:39;;;;;;;2.03;0.98;;;23.00;60.90;;;;;;5052923;28;20029;-76
2022/05/12 09:03:27;;;;;;;6.28;1.13;;;23.70;59.40;;;;;;5052727;28;20032;-75
2022/05/12 09:06:10;;;;;;;5.90;1.42;;;23.40;58.90;;;;;;5052854;28;20056;-77
2022/05/12 09:08:57;;;;;;;6.63;1.40;;;23.00;59.70;;;;;;5052667;28;20025;-75
2022/05/12 09:11:38;;;;;;;4.88;0.98;;;23.00;59.10;;;;;;5052482;28;20057;-76
2022/05/12 09:14:15;;;;;;;4.10;1.15;;;23.00;59.00;;;;;;5052506;28;20108;-77
2022/05/12 09:16:41;;;;;;;3.97;2.17;;;23.90;59.80;;;;;;5053164;28;20021;-76
2022/05/12 09:19:06;;;;;;;4.10;1.27;;;25.20;56.30;;;;;;5052700;28;20025;-76
2022/05/12 09:21:36;;;;;;;4.57;1.17;;;25.60;54.60;;;;;;5034862;28;20033;-76
2022/05/12 09:24:07;;;;;;;4.65;2.17;;;25.40;52.90;;;;;;5034849;28;20037;-75
2022/05/12 09:26:44;;;;;;;6.47;1.50;;;24.50;53.80;;;;;;5052356;28;20029;-75
2022/05/12 09:29:13;;;;;;;5.38;0.95;;;23.80;55.00;;;;;;5051481;28;20488;-78
2022/05/12 09:31:40;;;;;;;4.15;1.00;;;23.10;55.50;;;;;;5052241;28;20104;-75
2022/05/12 09:34:19;;;;;;;5.05;0.93;;;23.40;54.80;;;;;;5034738;28;20029;-74
2022/05/12 09:36:44;;;;;;;4.47;1.38;;;24.90;53.80;;;;;;5052374;28;20416;-76
2022/05/12 09:39:12;;;;;;;6.43;1.30;;;25.00;52.30;;;;;;5052235;28;20037;-75
2022/05/12 09:41:41;;;;;;;0.85;0.60;;;25.70;51.80;;;;;;5034528;28;20040;-75
2022/05/12 09:44:24;;;;;;;1.02;0.50;;;24.60;52.00;;;;;;5052000;28;20025;-77
2022/05/12 09:47:13;;;;;;;5.30;1.50;;;24.50;52.40;;;;;;5052530;28;20021;-76
2022/05/12 09:49:44;;;;;;;4.72;1.90;;;24.50;51.80;;;;;;5052159;28;20454;-76
2022/05/12 09:52:36;;;;;;;4.82;1.52;;;25.00;51.10;;;;;;5051798;28;20090;-77
2022/05/12 09:55:20;;;;;;;4.00;1.10;;;24.60;51.80;;;;;;5051148;28;20033;-76
2022/05/12 09:57:57;;;;;;;5.63;1.23;;;24.40;51.40;;;;;;5051746;28;20036;-77
2022/05/12 10:00:39;;;;;;;;;;;24.30;51.20;;;;;;5052143;28;20466;-77
2022/05/12 10:09:10;;;;;;;4.22;0.93;;;24.00;51.20;;;;;;5051937;28;20116;-76
2022/05/12 10:12:02;;;;;;;4.57;1.00;;;24.20;52.00;;;;;;5051529;28;20060;-77
2022/05/12 10:14:50;;;;;;;2.25;0.88;;;24.20;52.10;;;;;;5051380;28;20582;-76
2022/05/12 10:17:39;;;;;;;3.75;1.23;;;24.20;51.20;;;;;;5051429;28;20365;-76
2022/05/12 10:20:12;;;;;;;6.20;0.82;;;23.60;52.20;;;;;;5051682;28;20446;-78
2022/05/12 10:22:47;;;;;;;5.30;1.30;;;23.30;52.00;;;;;;5034284;28;20029;-76
2022/05/12 10:25:56;;;;;;;3.83;0.85;;;23.30;53.30;;;;;;5051608;28;20032;-77
2022/05/12 10:28:38;;;;;;;5.50;1.27;;;23.70;52.40;;;;;;5051193;28;20041;-77
2022/05/12 10:31:27;;;;;;;2.17;1.00;;;23.40;51.60;;;;;;5033888;28;20082;-77
2022/05/12 10:34:17;;;;;;;2.58;1.20;;;23.60;52.30;;;;;;5051639;28;20040;-77
2022/05/12 10:37:01;;;;;;;2.70;1.00;;;23.20;52.20;;;;;;5051183;28;20044;-77
2022/05/12 10:39:50;;;;;;;5.00;1.27;;;22.80;53.10;;;;;;5033357;28;20044;-77
2022/05/12 10:42:33;;;;;;;2.67;1.05;;;22.80;52.00;;;;;;5051139;28;20584;-76
2022/05/12 10:45:27;;;;;;;4.07;0.80;;;23.20;52.00;;;;;;5050982;28;20037;-76
2022/05/12 10:48:11;;;;;;;6.45;2.15;;;22.50;53.10;;;;;;5033461;28;20437;-77
2022/05/12 10:50:56;;;;;;;6.55;1.20;;;22.30;51.70;;;;;;5033220;28;20025;-76
2022/05/12 10:53:44;;;;;;;1.90;0.82;;;22.10;53.10;;;;;;5032933;28;20167;-76
2022/05/12 10:56:32;;;;;;;3.05;1.00;;;22.20;53.20;;;;;;5050877;28;20029;-77
2022/05/12 10:59:08;;;;;;;2.85;0.93;;;21.80;52.80;;;;;;5051063;28;20108;-76
2022/05/12 11:01:49;;;;;;;1.85;1.00;;;22.00;52.60;;;;;;5050998;28;20045;-76
2022/05/12 11:04:21;;;;;;;2.83;0.90;;;22.40;52.00;;;;;;5033067;28;20037;-76
2022/05/12 11:06:58;;;;;;;2.03;0.70;;;22.50;52.30;;;;;;5049983;28;20120;-77
2022/05/12 11:09:31;;;;;;;3.70;0.85;;;21.90;50.40;;;;;;5033002;28;20598;-77
2022/05/12 11:12:04;;;;;;;4.88;0.70;;;22.10;50.40;;;;;;5050562;28;20628;-77
2022/05/12 11:14:33;;;;;;;2.35;0.90;;;21.90;49.80;;;;;;5050512;28;20036;-76
2022/05/12 11:17:08;;;;;;;4.25;0.77;;;22.20;49.20;;;;;;5033222;28;20139;-77
2022/05/12 11:19:34;;;;;;;2.65;0.70;;;22.10;49.60;;;;;;5050778;28;20059;-76
2022/05/12 11:22:37;;;;;;;3.78;2.08;;;22.10;50.20;;;;;;5050454;28;20033;-76
2022/05/12 11:25:22;;;;;;;11.82;3.25;;;22.60;51.10;;;;;;5050538;28;20025;-75
2022/05/12 11:27:51;;;;;;;5.80;1.73;;;22.80;51.60;;;;;;5050419;28;20036;-76
2022/05/12 11:30:36;;;;;;;2.78;0.90;;;22.80;50.60;;;;;;5050302;28;20037;-77
2022/05/12 11:33:27;;;;;;;3.15;1.08;;;22.30;50.50;;;;;;5050054;28;20489;-76
2022/05/12 11:35:54;;;;;;;6.30;2.28;;;21.90;48.40;;;;;;5050337;28;20124;-77
2022/05/12 11:38:35;;;;;;;5.35;1.77;;;21.80;49.10;;;;;;5050170;28;20048;-76
2022/05/12 11:41:01;;;;;;;3.33;0.93;;;21.90;48.80;;;;;;5050424;28;20028;-75
2022/05/12 11:46:53;;;;;;;3.95;1.02;;;22.00;49.30;;;;;;5050369;28;20635;-77
2022/05/12 11:49:48;;;;;;;5.07;2.72;;;22.00;49.30;;;;;;5050171;28;20187;-77
2022/05/12 11:52:30;;;;;;;7.50;2.22;;;22.00;49.90;;;;;;5050130;28;20080;-77
2022/05/12 11:55:06;;;;;;;1.70;0.65;;;22.30;49.80;;;;;;5050242;28;20363;-78
2022/05/12 11:57:41;;;;;;;4.70;1.00;;;22.20;48.80;;;;;;5032245;28;20048;-76
2022/05/12 12:00:32;;;;;;;5.28;0.85;;;22.40;48.30;;;;;;5032477;28;20382;-77
2022/05/12 12:02:58;;;;;;;6.57;1.52;;;22.10;48.80;;;;;;5049898;28;20031;-77
2022/05/12 12:05:26;;;;;;;3.00;0.85;;;22.10;49.20;;;;;;5032621;28;20491;-76
2022/05/12 12:07:53;;;;;;;2.72;0.93;;;22.60;48.70;;;;;;5032995;28;20025;-76
2022/05/12 12:10:25;;;;;;;4.85;1.10;;;22.30;48.10;;;;;;5050314;28;20036;-77
2022/05/12 12:13:00;;;;;;;4.45;1.27;;;22.40;48.90;;;;;;5049932;28;20100;-77
2022/05/12 12:15:35;;;;;;;5.38;1.40;;;22.30;49.20;;;;;;5049855;28;20527;-77
2022/05/12 12:18:25;;;;;;;1.95;0.80;;;22.50;49.20;;;;;;5050889;28;20051;-77
2022/05/12 12:20:54;;;;;;;3.30;1.27;;;22.20;49.40;;;;;;5053560;28;20116;-76
2022/05/12 12:23:35;;;;;;;4.00;1.00;;;22.30;49.10;;;;;;5035715;28;21008;-76
2022/05/12 12:26:25;;;;;;;3.85;1.05;;;22.30;49.40;;;;;;5053279;28;20091;-76
2022/05/12 12:29:15;;;;;;;11.63;0.90;;;22.10;49.50;;;;;;5053998;28;20020;-76
2022/05/12 12:31:47;;;;;;;4.68;1.10;;;22.30;49.70;;;;;;5035771;28;20052;-78
2022/05/12 12:34:33;;;;;;;3.33;1.30;;;22.50;49.40;;;;;;5053338;28;20048;-77
2022/05/12 12:37:07;;;;;;;3.35;0.93;;;22.40;49.60;;;;;;5053264;28;20055;-78
2022/05/12 12:39:45;;;;;;;3.83;1.30;;;22.30;50.00;;;;;;5035998;28;20040;-77
2022/05/12 12:42:16;;;;;;;;;;;22.40;49.90;;;;;;5053596;28;20044;-76
2022/05/12 12:44:45;;;;;;;5.93;1.92;;;22.60;50.00;;;;;;5035515;28;19912;-76
2022/05/12 12:47:32;;;;;;;5.45;1.52;;;22.70;50.00;;;;;;5053236;28;20025;-77
2022/05/12 12:50:22;;;;;;;5.77;0.80;;;22.60;49.70;;;;;;5036178;28;20036;-77
2022/05/12 12:52:50;;;;;;;3.72;0.98;;;22.10;50.30;;;;;;5053746;28;20331;-77
2022/05/12 12:58:46;;;;;;;3.85;1.23;;;22.00;50.20;;;;;;5053149;28;20091;-77
2022/05/12 13:01:19;;;;;;;3.17;0.85;;;22.00;48.70;;;;;;5053170;28;20036;-76
2022/05/12 13:03:48;;;;;;;2.38;0.85;;;22.10;49.30;;;;;;5052938;28;20047;-77
2022/05/12 13:06:16;;;;;;;6.60;1.27;;;22.20;49.80;;;;;;5035039;28;20413;-75
2022/05/12 13:08:43;;;;;;;2.33;1.10;;;22.20;49.70;;;;;;5052871;28;20136;-77
2022/05/12 13:11:20;;;;;;;5.50;1.00;;;22.20;49.80;;;;;;5052779;28;20063;-76
2022/05/12 13:13:51;;;;;;;4.45;1.15;;;22.10;50.40;;;;;;5053110;28;20033;-76
2022/05/12 13:16:19;;;;;;;4.35;1.08;;;22.10;50.40;;;;;;5052895;28;20091;-77
2022/05/12 13:18:49;;;;;;;4.20;1.92;;;22.20;49.60;;;;;;5052608;28;20471;-77
2022/05/12 13:21:23;;;;;;;5.07;1.95;;;22.10;49.30;;;;;;5052651;28;20044;-76
2022/05/12 13:24:20;;;;;;;3.83;1.65;;;22.00;49.20;;;;;;5034964;28;20025;-76
2022/05/12 13:26:48;;;;;;;7.97;2.15;;;22.00;49.40;;;;;;5037928;28;20033;-76
2022/05/12 13:29:20;;;;;;;;;;;22.20;49.60;;;;;;5052107;28;20096;-77
2022/05/12 13:31:54;;;;;;;7.63;3.88;;;22.40;49.50;;;;;;5052764;28;19913;-77
2022/05/12 13:34:26;;;;;;;5.13;1.23;;;22.10;49.50;;;;;;5052152;28;20037;-75
2022/05/12 13:36:55;;;;;;;4.13;1.00;;;22.10;49.50;;;;;;5052048;28;20040;-77
2022/05/12 13:39:50;;;;;;;2.72;1.02;;;22.20;49.50;;;;;;5051954;28;20406;-76
2022/05/12 13:42:30;;;;;;;2.67;0.90;;;22.00;49.30;;;;;;5051860;28;20437;-75
2022/05/12 13:45:02;;;;;;;2.55;0.85;;;22.10;49.80;;;;;;5051919;28;20041;-75
2022/05/12 13:47:43;;;;;;;8.20;0.95;;;22.10;50.00;;;;;;5034148;28;20025;-75
2022/05/12 13:50:11;;;;;;;3.78;0.95;;;21.90;50.10;;;;;;5051528;28;20065;-76
2022/05/12 13:52:42;;;;;;;5.60;1.10;;;21.70;50.10;;;;;;5052138;28;20035;-76
2022/05/12 13:55:18;;;;;;;4.10;1.00;;;21.50;50.50;;;;;;5051923;28;20021;-76
2022/05/12 13:57:48;;;;;;;1.88;1.20;;;21.60;50.50;;;;;;5051659;28;20040;-77
2022/05/12 14:00:25;;;;;;;8.23;1.50;;;21.50;50.80;;;;;;5051890;28;20370;-78
2022/05/12 14:03:23;;;;;;;6.05;3.08;;;21.40;51.00;;;;;;5034062;28;20036;-76
2022/05/12 14:05:53;;;;;;;4.47;0.85;;;21.60;51.20;;;;;;5045663;28;20029;-78
2022/05/12 14:08:21;;;;;;;4.10;1.67;;;21.70;51.10;;;;;;5051347;28;20013;-77
2022/05/12 14:11:00;;;;;;;5.35;1.40;;;21.80;51.50;;;;;;5051584;28;20103;-77
2022/05/12 14:19:19;;;;;;;3.85;1.00;;;21.80;51.40;;;;;;5051851;28;20127;-79
2022/05/12 14:21:50;;;;;;;4.00;1.00;;;21.80;51.10;;;;;;5033944;28;20060;-85
2022/05/12 14:24:17;;;;;;;3.25;1.10;;;21.70;51.00;;;;;;5052088;28;20040;-78
2022/05/12 14:26:44;;;;;;;4.45;1.58;;;21.80;51.20;;;;;;5033725;28;20116;-74
2022/05/12 14:29:10;;;;;;;5.60;1.83;;;21.90;51.20;;;;;;5033461;28;20078;-75
2022/05/12 14:31:36;;;;;;;4.80;1.25;;;22.00;51.40;;;;;;5051327;28;20025;-73
2022/05/12 14:34:03;;;;;;;5.95;1.60;;;22.10;51.40;;;;;;5033481;28;20476;-73
2022/05/12 14:36:29;;;;;;;4.72;1.50;;;21.90;51.00;;;;;;5051003;28;20033;-74
2022/05/12 14:38:54;;;;;;;2.33;0.95;;;21.60;51.30;;;;;;5050860;28;20516;-74
2022/05/12 14:41:23;;;;;;;3.90;1.35;;;21.70;52.30;;;;;;5051078;28;20017;-91
2022/05/12 14:43:48;;;;;;;1.83;0.90;;;21.70;51.50;;;;;;5052252;28;20120;-81
2022/05/12 14:46:16;;;;;;;4.32;1.83;;;21.50;51.80;;;;;;5051511;28;20116;-71
2022/05/12 14:48:45;;;;;;;6.38;1.02;;;21.60;51.70;;;;;;5034071;28;20087;-80
2022/05/12 14:51:12;;;;;;;6.90;1.17;;;21.70;51.60;;;;;;5033310;28;20043;-73
2022/05/12 14:53:39;;;;;;;3.13;1.17;;;21.70;51.20;;;;;;5033001;28;20110;-74
2022/05/12 14:56:08;;;;;;;4.20;1.38;;;21.80;51.50;;;;;;5050692;28;20029;-73
2022/05/12 14:58:33;;;;;;;4.63;1.40;;;21.90;51.40;;;;;;5033725;28;20025;-75
2022/05/12 15:01:00;;;;;;;2.22;0.90;;;21.80;51.30;;;;;;5033130;28;20029;-75
2022/05/12 15:03:26;;;;;;;3.80;1.27;;;21.50;51.20;;;;;;5051233;28;20029;-75
2022/05/12 15:05:52;;;;;;;7.20;1.35;;;21.50;51.60;;;;;;5050577;28;20036;-71
2022/05/12 15:08:17;;;;;;;6.10;1.90;;;21.50;50.80;;;;;;5050791;28;20117;-73
2022/05/12 15:10:43;;;;;;;4.85;1.52;;;21.60;50.00;;;;;;5051002;28;20032;-72